createdAt,value
2022-07-31T00:02:06.867Z,18.05
2022-07-31T00:04:53.191Z,18.04
2022-07-31T00:07:39.452Z,17.96
2022-07-31T00:10:26.018Z,17.92
2022-07-31T00:13:12.392Z,17.85
2022-07-31T00:15:58.678Z,17.71
2022-07-31T00:18:44.945Z,17.72
2022-07-31T00:21:31.150Z,17.95
2022-07-31T00:24:17.474Z,17.95
2022-07-31T00:27:04.908Z,17.63
2022-07-31T00:29:51.592Z,17.71
2022-07-31T00:32:38.121Z,17.57
2022-07-31T00:35:24.646Z,17.70
2022-07-31T00:38:27.458Z,17.51
2022-07-31T00:41:13.731Z,17.44
2022-07-31T00:44:00.122Z,17.45
2022-07-31T00:46:47.012Z,17.36
2022-07-31T00:49:37.711Z,17.28
2022-07-31T00:52:24.139Z,17.43
2022-07-31T00:55:10.579Z,17.34
2022-07-31T00:57:56.919Z,17.45
2022-07-31T01:00:43.230Z,17.54
2022-07-31T01:03:29.644Z,17.49
2022-07-31T01:06:16.121Z,17.86
2022-07-31T01:09:02.456Z,17.28
2022-07-31T01:12:01.961Z,17.53
2022-07-31T01:14:50.653Z,17.76
2022-07-31T01:17:38.854Z,17.69
2022-07-31T01:20:25.691Z,17.75
2022-07-31T01:23:21.267Z,17.67
2022-07-31T01:26:21.341Z,17.56
2022-07-31T01:29:27.587Z,17.92
2022-07-31T01:32:17.694Z,17.52
2022-07-31T01:35:27.800Z,17.76
2022-07-31T01:38:26.786Z,17.77
2022-07-31T01:41:14.813Z,17.85
2022-07-31T01:44:01.333Z,18.06
2022-07-31T01:46:48.844Z,17.85
2022-07-31T01:49:35.638Z,17.69
2022-07-31T01:52:25.506Z,17.76
2022-07-31T01:55:12.925Z,17.74
2022-07-31T01:58:00.929Z,17.76
2022-07-31T02:00:48.564Z,17.75
2022-07-31T02:03:43.712Z,17.93
2022-07-31T02:06:32.011Z,17.86
2022-07-31T02:09:20.209Z,17.80
2022-07-31T02:12:09.327Z,17.97
2022-07-31T02:14:56.599Z,18.03
2022-07-31T02:17:44.620Z,17.83
2022-07-31T02:20:40.495Z,17.49
2022-07-31T02:23:28.684Z,17.80
2022-07-31T02:26:15.767Z,17.75
2022-07-31T02:29:03.012Z,17.49
2022-07-31T02:32:02.777Z,17.64
2022-07-31T02:34:50.276Z,17.70
2022-07-31T02:37:38.141Z,17.63
2022-07-31T02:40:25.470Z,17.49
2022-07-31T02:43:13.146Z,18.02
2022-07-31T02:45:59.271Z,17.59
2022-07-31T02:48:46.093Z,17.40
2022-07-31T02:51:41.059Z,17.85
2022-07-31T02:54:29.505Z,17.59
2022-07-31T02:57:15.856Z,17.60
2022-07-31T03:00:02.469Z,17.47
2022-07-31T03:02:52.936Z,17.34
2022-07-31T03:05:39.840Z,17.41
2022-07-31T03:08:27.242Z,17.47
2022-07-31T03:11:14.823Z,17.54
2022-07-31T03:14:01.992Z,17.53
2022-07-31T03:16:49.536Z,17.29
2022-07-31T03:19:35.565Z,17.31
2022-07-31T03:22:21.855Z,17.48
2022-07-31T03:25:08.825Z,17.42
2022-07-31T03:27:56.118Z,17.30
2022-07-31T03:30:42.949Z,17.29
2022-07-31T03:33:30.066Z,17.24
2022-07-31T03:36:16.443Z,17.57
2022-07-31T03:39:02.978Z,17.72
2022-07-31T03:41:50.015Z,17.68
2022-07-31T03:44:38.004Z,17.45
2022-07-31T03:47:24.211Z,17.53
2022-07-31T03:50:11.356Z,17.63
2022-07-31T03:52:58.332Z,17.43
2022-07-31T03:55:44.924Z,17.26
2022-07-31T03:58:31.233Z,17.37
2022-07-31T04:01:20.685Z,17.96
2022-07-31T04:04:07.962Z,17.52
2022-07-31T04:06:54.245Z,17.47
2022-07-31T04:09:40.984Z,17.45
2022-07-31T04:12:27.356Z,17.33
2022-07-31T04:15:14.162Z,17.45
2022-07-31T04:18:00.580Z,17.38
2022-07-31T04:20:47.916Z,17.33
2022-07-31T04:23:34.240Z,17.26
2022-07-31T04:26:26.087Z,17.24
2022-07-31T04:29:13.448Z,17.27
2022-07-31T04:31:59.600Z,17.61
2022-07-31T04:34:47.119Z,17.29
2022-07-31T04:37:33.809Z,17.34
2022-07-31T04:40:20.015Z,17.37
2022-07-31T04:43:06.362Z,17.23
2022-07-31T04:45:52.931Z,17.05
2022-07-31T04:48:39.374Z,17.21
2022-07-31T04:51:27.627Z,17.36
2022-07-31T04:54:14.989Z,17.23
2022-07-31T04:57:01.226Z,17.05
2022-07-31T04:59:58.548Z,17.00
2022-07-31T05:02:47.684Z,16.97
2022-07-31T05:05:33.893Z,16.98
2022-07-31T05:08:20.415Z,16.97
2022-07-31T05:11:22.489Z,17.20
2022-07-31T05:14:11.168Z,17.10
2022-07-31T05:16:57.824Z,17.25
2022-07-31T05:19:45.374Z,16.94
2022-07-31T05:22:34.894Z,17.39
2022-07-31T05:25:21.606Z,16.93
2022-07-31T05:28:09.684Z,17.17
2022-07-31T05:30:55.853Z,16.85
2022-07-31T05:33:42.635Z,16.96
2022-07-31T05:36:29.021Z,16.49
2022-07-31T05:39:17.616Z,16.13
2022-07-31T05:42:05.806Z,16.19
2022-07-31T05:44:52.709Z,16.35
2022-07-31T05:47:40.498Z,16.91
2022-07-31T05:50:27.289Z,16.26
2022-07-31T05:53:16.999Z,16.22
2022-07-31T05:56:05.709Z,16.47
2022-07-31T05:58:52.056Z,16.51
2022-07-31T06:01:38.523Z,16.54
2022-07-31T06:04:25.192Z,16.55
2022-07-31T06:07:11.625Z,16.51
2022-07-31T06:09:58.422Z,16.43
2022-07-31T06:12:44.705Z,16.77
2022-07-31T06:15:35.782Z,16.56
2022-07-31T06:18:23.000Z,16.62
2022-07-31T06:23:56.487Z,16.63
2022-07-31T06:26:43.517Z,16.46
2022-07-31T06:29:41.639Z,16.50
2022-07-31T06:32:28.622Z,16.26
2022-07-31T06:35:14.921Z,16.43
2022-07-31T06:38:03.090Z,16.09
2022-07-31T06:40:51.573Z,16.14
2022-07-31T06:43:39.547Z,16.21
2022-07-31T06:46:30.042Z,16.13
2022-07-31T06:49:18.569Z,16.31
2022-07-31T06:52:05.064Z,16.38
2022-07-31T06:54:52.481Z,16.35
2022-07-31T06:57:38.818Z,16.59
2022-07-31T07:00:25.114Z,16.61
2022-07-31T07:03:13.422Z,16.70
2022-07-31T07:06:00.009Z,17.08
2022-07-31T07:08:46.615Z,16.74
2022-07-31T07:11:34.302Z,17.02
2022-07-31T07:14:20.634Z,16.88
2022-07-31T07:17:06.829Z,16.88
2022-07-31T07:19:54.776Z,17.01
2022-07-31T07:22:42.116Z,17.39
2022-07-31T07:25:29.486Z,17.36
2022-07-31T07:28:30.115Z,17.43
2022-07-31T07:31:17.197Z,17.31
2022-07-31T07:34:06.215Z,17.54
2022-07-31T07:36:52.592Z,17.67
2022-07-31T07:39:39.950Z,17.53
2022-07-31T07:42:26.461Z,17.80
2022-07-31T07:45:13.843Z,17.67
2022-07-31T07:48:06.561Z,18.06
2022-07-31T07:50:55.610Z,17.93
2022-07-31T07:53:42.046Z,18.05
2022-07-31T07:56:30.925Z,18.14
2022-07-31T07:59:17.646Z,18.13
2022-07-31T08:02:06.280Z,18.19
2022-07-31T08:04:52.822Z,18.37
2022-07-31T08:07:41.879Z,18.45
2022-07-31T08:10:29.119Z,18.60
2022-07-31T08:13:15.459Z,18.75
2022-07-31T08:16:05.393Z,19.16
2022-07-31T08:18:52.999Z,19.18
2022-07-31T08:21:39.661Z,19.18
2022-07-31T08:24:25.957Z,18.89
2022-07-31T08:27:24.342Z,18.60
2022-07-31T08:30:29.182Z,19.17
2022-07-31T08:33:18.473Z,18.88
2022-07-31T08:36:09.170Z,19.15
2022-07-31T08:38:55.773Z,19.52
2022-07-31T08:41:43.593Z,19.68
2022-07-31T08:44:39.355Z,19.99
2022-07-31T08:47:27.166Z,19.91
2022-07-31T08:50:15.589Z,19.70
2022-07-31T08:53:02.747Z,19.22
2022-07-31T08:55:57.006Z,18.87
2022-07-31T08:58:44.768Z,19.01
2022-07-31T09:01:33.798Z,19.18
2022-07-31T09:04:19.683Z,18.60
2022-07-31T09:07:10.586Z,18.60
2022-07-31T09:09:57.193Z,17.96
2022-07-31T09:12:44.441Z,18.01
2022-07-31T09:15:31.985Z,18.19
2022-07-31T09:18:21.282Z,17.70
2022-07-31T09:21:07.732Z,17.89
2022-07-31T09:23:54.794Z,17.86
2022-07-31T09:26:41.069Z,18.15
2022-07-31T09:29:41.399Z,18.26
2022-07-31T09:32:28.765Z,17.91
2022-07-31T09:35:15.833Z,17.80
2022-07-31T09:38:04.343Z,17.57
2022-07-31T09:40:57.195Z,17.61
2022-07-31T09:43:54.790Z,18.22
2022-07-31T09:46:45.929Z,18.23
2022-07-31T09:49:33.444Z,17.87
2022-07-31T09:52:20.746Z,17.95
2022-07-31T09:55:16.294Z,18.20
2022-07-31T09:58:03.383Z,18.55
2022-07-31T10:00:52.846Z,18.68
2022-07-31T10:03:40.401Z,18.70
2022-07-31T10:06:27.834Z,18.66
2022-07-31T10:09:15.528Z,18.43
2022-07-31T10:12:02.444Z,18.36
2022-07-31T10:14:51.158Z,18.77
2022-07-31T10:17:39.861Z,18.03
2022-07-31T10:20:26.941Z,18.23
2022-07-31T10:23:22.208Z,18.41
2022-07-31T10:26:08.920Z,18.50
2022-07-31T10:28:55.889Z,18.41
2022-07-31T10:31:42.361Z,18.60
2022-07-31T10:34:28.797Z,18.37
2022-07-31T10:37:24.862Z,18.38
2022-07-31T10:40:20.985Z,18.50
2022-07-31T10:43:10.093Z,18.57
2022-07-31T10:45:56.797Z,18.71
2022-07-31T10:48:52.863Z,18.70
2022-07-31T10:51:51.750Z,18.70
2022-07-31T10:54:40.452Z,18.97
2022-07-31T10:57:34.698Z,19.04
2022-07-31T11:00:41.886Z,19.14
2022-07-31T11:03:41.798Z,19.19
2022-07-31T11:06:42.020Z,19.41
2022-07-31T11:09:29.199Z,19.33
2022-07-31T11:12:19.793Z,19.08
2022-07-31T11:15:21.373Z,19.31
2022-07-31T11:18:20.960Z,19.55
2022-07-31T11:21:37.169Z,19.66
2022-07-31T11:24:28.992Z,19.75
2022-07-31T11:27:15.267Z,19.94
2022-07-31T11:30:12.981Z,20.04
2022-07-31T11:32:59.431Z,20.61
2022-07-31T11:35:45.888Z,20.50
2022-07-31T11:38:32.160Z,20.63
2022-07-31T11:41:22.239Z,20.42
2022-07-31T11:44:09.241Z,20.55
2022-07-31T11:46:55.667Z,20.33
2022-07-31T11:49:48.554Z,20.61
2022-07-31T11:52:37.566Z,20.35
2022-07-31T11:55:24.102Z,20.41
2022-07-31T11:58:13.509Z,20.20
2022-07-31T12:01:01.548Z,19.95
2022-07-31T12:03:49.984Z,19.71
2022-07-31T12:06:37.295Z,19.88
2022-07-31T12:10:00.395Z,19.86
2022-07-31T12:12:31.065Z,19.61
2022-07-31T12:15:19.809Z,19.82
2022-07-31T12:18:06.108Z,19.62
2022-07-31T12:21:04.539Z,19.93
2022-07-31T12:23:52.313Z,19.91
2022-07-31T12:26:39.009Z,19.62
2022-07-31T12:29:36.799Z,19.67
2022-07-31T12:32:27.787Z,19.74
2022-07-31T12:35:14.025Z,20.00
2022-07-31T12:38:07.270Z,19.81
2022-07-31T12:41:07.888Z,19.79
2022-07-31T12:43:56.269Z,19.37
2022-07-31T12:46:42.610Z,19.37
2022-07-31T12:49:29.089Z,19.20
2022-07-31T12:52:15.455Z,19.23
2022-07-31T12:55:05.104Z,19.03
2022-07-31T12:57:52.243Z,19.21
2022-07-31T13:00:40.236Z,18.93
2022-07-31T13:03:45.473Z,19.35
2022-07-31T13:06:34.337Z,19.42
2022-07-31T13:09:20.802Z,19.17
2022-07-31T13:12:07.956Z,19.20
2022-07-31T13:14:54.250Z,19.16
2022-07-31T13:17:43.834Z,18.63
2022-07-31T13:20:34.333Z,19.00
2022-07-31T13:23:21.521Z,19.19
2022-07-31T13:26:07.591Z,18.86
2022-07-31T13:28:53.882Z,18.83
2022-07-31T13:31:40.597Z,18.58
2022-07-31T13:34:26.822Z,18.78
2022-07-31T13:37:13.037Z,18.37
2022-07-31T13:39:59.433Z,18.43
2022-07-31T13:42:45.833Z,18.73
2022-07-31T13:45:32.533Z,18.64
2022-07-31T13:48:18.963Z,18.93
2022-07-31T13:51:05.151Z,19.06
2022-07-31T13:53:51.569Z,19.05
2022-07-31T13:56:43.499Z,19.10
2022-07-31T13:59:29.953Z,19.32
2022-07-31T14:02:16.551Z,19.58
2022-07-31T14:05:04.929Z,19.51
2022-07-31T14:07:54.866Z,19.61
2022-07-31T14:10:41.740Z,19.90
2022-07-31T14:13:29.018Z,19.65
2022-07-31T14:16:15.423Z,19.53
2022-07-31T14:19:01.531Z,19.84
2022-07-31T14:21:55.922Z,20.26
2022-07-31T14:24:50.713Z,20.00
2022-07-31T14:27:38.705Z,20.04
2022-07-31T14:30:24.947Z,20.11
2022-07-31T14:33:13.401Z,19.62
2022-07-31T14:35:59.338Z,19.59
2022-07-31T14:38:45.596Z,19.07
2022-07-31T14:41:31.881Z,18.74
2022-07-31T14:44:21.403Z,18.83
2022-07-31T14:47:14.702Z,18.56
2022-07-31T14:50:07.017Z,18.49
2022-07-31T14:52:56.734Z,18.72
2022-07-31T14:55:43.129Z,18.96
2022-07-31T14:58:29.462Z,18.75
2022-07-31T15:01:16.307Z,19.15
2022-07-31T15:04:02.921Z,19.25
2022-07-31T15:06:55.818Z,19.30
2022-07-31T15:09:45.069Z,19.64
2022-07-31T15:12:31.970Z,20.00
2022-07-31T15:15:18.301Z,20.21
2022-07-31T15:18:04.770Z,20.31
2022-07-31T15:20:51.075Z,20.39
2022-07-31T15:23:37.751Z,20.41
2022-07-31T15:26:24.012Z,20.75
2022-07-31T15:29:10.233Z,20.64
2022-07-31T15:31:56.630Z,21.35
2022-07-31T15:34:42.976Z,21.39
2022-07-31T15:37:30.253Z,21.47
2022-07-31T15:40:17.222Z,21.36
2022-07-31T15:43:03.052Z,21.41
2022-07-31T15:45:49.866Z,21.48
2022-07-31T15:48:37.366Z,21.06
2022-07-31T15:51:23.921Z,20.57
2022-07-31T15:54:11.130Z,20.71
2022-07-31T15:56:57.525Z,20.88
2022-07-31T15:59:43.942Z,20.72
2022-07-31T16:02:30.185Z,20.05
2022-07-31T16:05:32.970Z,20.67
2022-07-31T16:08:31.104Z,20.52
2022-07-31T16:11:20.881Z,20.43
2022-07-31T16:14:10.615Z,20.22
2022-07-31T16:16:58.342Z,20.55
2022-07-31T16:19:44.843Z,20.99
2022-07-31T16:22:31.237Z,21.36
2022-07-31T16:25:18.872Z,19.40
2022-07-31T16:28:05.505Z,20.55
2022-07-31T16:30:51.603Z,20.97
2022-07-31T16:33:37.957Z,21.77
2022-07-31T16:36:24.868Z,21.56
2022-07-31T16:39:20.244Z,21.48
2022-07-31T16:42:07.305Z,21.21
2022-07-31T16:44:56.556Z,20.52
2022-07-31T16:47:45.719Z,19.92
2022-07-31T16:50:38.129Z,21.02
2022-07-31T16:54:11.170Z,19.16
2022-07-31T16:56:33.889Z,19.76
2022-07-31T16:59:21.207Z,19.67
2022-07-31T17:02:07.582Z,19.87
2022-07-31T17:04:54.263Z,19.50
2022-07-31T17:07:40.897Z,20.02
2022-07-31T17:10:27.408Z,19.53
2022-07-31T17:13:15.609Z,20.60
2022-07-31T17:16:03.317Z,19.77
2022-07-31T17:18:54.373Z,19.09
2022-07-31T17:21:41.899Z,19.83
2022-07-31T17:24:32.615Z,19.65
2022-07-31T17:27:21.303Z,20.42
2022-07-31T17:30:08.316Z,19.92
2022-07-31T17:32:54.415Z,20.32
2022-07-31T17:35:41.627Z,20.76
2022-07-31T17:38:27.750Z,20.26
2022-07-31T17:41:24.681Z,19.74
2022-07-31T17:44:11.878Z,20.48
2022-07-31T17:46:59.200Z,21.05
2022-07-31T17:49:46.229Z,19.73
2022-07-31T17:52:32.933Z,19.15
2022-07-31T17:55:19.046Z,19.37
2022-07-31T17:58:05.807Z,19.08
2022-07-31T18:00:53.081Z,18.91
2022-07-31T18:03:39.191Z,19.43
2022-07-31T18:06:25.618Z,19.92
2022-07-31T18:09:14.773Z,19.60
2022-07-31T18:12:02.590Z,19.26
2022-07-31T18:14:49.687Z,19.25
2022-07-31T18:17:40.239Z,19.24
2022-07-31T18:20:26.828Z,19.19
2022-07-31T18:23:14.436Z,18.63
2022-07-31T18:26:02.716Z,18.91
2022-07-31T18:28:49.371Z,18.47
2022-07-31T18:31:36.350Z,18.73
2022-07-31T18:34:23.457Z,19.31
2022-07-31T18:37:13.479Z,18.57
2022-07-31T18:40:00.752Z,18.63
2022-07-31T18:42:47.148Z,18.79
2022-07-31T18:45:33.722Z,18.76
2022-07-31T18:48:20.536Z,18.78
2022-07-31T18:51:07.105Z,18.18
2022-07-31T18:53:54.429Z,18.07
2022-07-31T18:56:40.744Z,18.39
2022-07-31T18:59:27.314Z,18.07
2022-07-31T19:02:14.681Z,18.02
2022-07-31T19:05:04.017Z,17.85
2022-07-31T19:07:50.468Z,17.59
2022-07-31T19:10:37.065Z,17.66
2022-07-31T19:13:23.861Z,17.87
2022-07-31T19:16:10.303Z,17.48
2022-07-31T19:18:57.855Z,17.63
2022-07-31T19:21:44.681Z,17.89
2022-07-31T19:24:31.235Z,17.43
2022-07-31T19:27:18.382Z,17.76
2022-07-31T19:30:05.806Z,17.97
2022-07-31T19:32:52.460Z,17.67
2022-07-31T19:35:55.400Z,17.42
2022-07-31T19:38:45.446Z,17.79
2022-07-31T19:41:34.513Z,17.73
2022-07-31T19:44:21.846Z,17.39
2022-07-31T19:47:10.778Z,17.61
2022-07-31T19:49:57.011Z,17.28
2022-07-31T19:52:43.301Z,17.59
2022-07-31T19:55:29.716Z,17.74
2022-07-31T19:58:23.667Z,18.08
2022-07-31T20:01:11.574Z,17.33
2022-07-31T20:03:58.105Z,17.53
2022-07-31T20:06:44.398Z,17.27
2022-07-31T20:09:31.249Z,17.26
2022-07-31T20:12:18.083Z,17.25
2022-07-31T20:15:05.301Z,17.15
2022-07-31T20:17:52.465Z,16.85
2022-07-31T20:20:39.310Z,16.89
2022-07-31T20:23:26.269Z,17.00
2022-07-31T20:26:17.829Z,17.30
2022-07-31T20:29:04.632Z,16.64
2022-07-31T20:31:51.024Z,17.08
2022-07-31T20:34:37.398Z,16.87
2022-07-31T20:37:23.858Z,16.72
2022-07-31T20:40:10.572Z,16.76
2022-07-31T20:42:56.921Z,16.73
2022-07-31T20:45:47.713Z,17.13
2022-07-31T20:48:34.932Z,17.20
2022-07-31T20:51:28.731Z,17.11
2022-07-31T20:54:15.206Z,17.12
2022-07-31T20:57:01.553Z,17.16
2022-07-31T20:59:48.024Z,17.11
2022-07-31T21:02:34.640Z,16.81
2022-07-31T21:05:26.746Z,17.07
2022-07-31T21:08:13.185Z,17.24
2022-07-31T21:11:01.176Z,17.38
2022-07-31T21:13:47.647Z,17.28
2022-07-31T21:16:35.042Z,17.05
2022-07-31T21:19:21.254Z,17.65
2022-07-31T21:22:07.781Z,17.27
2022-07-31T21:24:54.204Z,17.03
2022-07-31T21:27:40.986Z,17.35
2022-07-31T21:30:28.112Z,17.19
2022-07-31T21:33:15.073Z,17.45
2022-07-31T21:36:01.163Z,17.04
2022-07-31T21:38:47.790Z,17.06
2022-07-31T21:41:34.023Z,16.75
2022-07-31T21:44:20.859Z,17.61
2022-07-31T21:47:09.695Z,17.51
2022-07-31T21:49:58.520Z,17.32
2022-07-31T21:52:44.427Z,17.97
2022-07-31T21:55:30.918Z,17.54
2022-07-31T21:58:17.635Z,17.62
2022-07-31T22:01:04.555Z,17.38
2022-07-31T22:03:50.992Z,17.13
2022-07-31T22:06:55.918Z,17.43
2022-07-31T22:09:42.270Z,17.82
2022-07-31T22:12:28.592Z,17.91
2022-07-31T22:15:15.905Z,17.53
2022-07-31T22:18:02.837Z,17.24
2022-07-31T22:20:49.574Z,16.90
2022-07-31T22:23:36.200Z,16.47
2022-07-31T22:26:22.806Z,16.59
2022-07-31T22:29:08.953Z,17.05
2022-07-31T22:31:55.997Z,17.24
2022-07-31T22:34:42.455Z,17.82
2022-07-31T22:37:29.025Z,17.89
2022-07-31T22:40:16.981Z,18.15
2022-07-31T22:43:04.086Z,17.36
2022-07-31T22:46:12.349Z,17.20
2022-07-31T22:48:58.949Z,16.76
2022-07-31T22:51:46.720Z,15.63
2022-07-31T22:54:33.790Z,16.25
2022-07-31T22:57:19.804Z,16.65
2022-07-31T23:00:07.807Z,16.62
2022-07-31T23:02:54.011Z,16.18
2022-07-31T23:06:03.558Z,16.40
2022-07-31T23:08:46.185Z,16.69
2022-07-31T23:11:37.563Z,16.46
2022-07-31T23:14:23.981Z,17.47
2022-07-31T23:17:10.163Z,17.23
2022-07-31T23:20:09.531Z,17.49
2022-07-31T23:22:56.159Z,17.50
2022-07-31T23:25:42.491Z,15.47
2022-07-31T23:28:28.882Z,16.33
2022-07-31T23:31:15.263Z,16.70
2022-07-31T23:34:01.731Z,16.51
2022-07-31T23:36:47.872Z,15.67
2022-07-31T23:39:33.989Z,14.81
2022-07-31T23:42:38.525Z,15.72
2022-07-31T23:45:25.313Z,16.28
2022-07-31T23:48:14.966Z,16.48
2022-07-31T23:51:01.502Z,16.04
2022-07-31T23:53:47.620Z,16.73
2022-07-31T23:56:34.177Z,15.75
2022-07-31T23:59:20.371Z,16.03
